createdAt,value
2017-04-07T08:23:17.953Z,2465
2017-04-07T08:28:17.672Z,705
2017-04-07T08:33:17.649Z,2370
2017-04-07T08:38:17.336Z,1005
2017-04-07T08:43:17.582Z,760
2017-04-07T08:48:17.306Z,1265
2017-04-07T08:53:17.549Z,1280
2017-04-07T08:58:17.526Z,585
2017-04-07T09:03:17.486Z,760
2017-04-07T09:08:17.509Z,670
2017-04-07T09:13:17.446Z,1105
2017-04-07T09:18:17.364Z,1535
2017-04-07T09:23:17.382Z,1395
2017-04-07T09:28:17.120Z,2455
2017-04-07T09:33:17.516Z,1345
2017-04-07T09:38:16.916Z,610
2017-04-07T09:43:17.192Z,620
2017-04-07T09:48:16.867Z,2520
2017-04-07T09:53:17.140Z,990
2017-04-07T09:58:17.089Z,1435
2017-04-07T10:03:17.053Z,535
2017-04-07T10:08:16.704Z,2420
2017-04-07T10:13:17.035Z,520
2017-04-07T10:18:16.622Z,385
2017-04-07T10:23:17.020Z,550
2017-04-07T10:28:16.707Z,305
2017-04-07T10:33:17.174Z,380
2017-04-07T10:38:16.919Z,1130
2017-04-07T10:43:16.993Z,580
2017-04-07T10:48:16.616Z,840
2017-04-07T10:53:16.963Z,525
2017-04-07T10:58:16.967Z,1145
2017-04-07T11:03:16.950Z,890
2017-04-07T11:08:17.159Z,925
2017-04-07T11:13:16.645Z,530
2017-04-07T11:18:16.005Z,680
2017-04-07T11:23:17.039Z,700
2017-04-07T11:28:17.043Z,550
2017-04-07T11:33:16.710Z,520
2017-04-07T11:38:16.991Z,450
2017-04-07T11:43:17.016Z,375
2017-04-07T11:48:17.187Z,365
2017-04-07T11:53:17.003Z,385
2017-04-07T11:58:17.204Z,485
2017-04-07T12:03:16.698Z,480
2017-04-07T12:08:16.702Z,485
2017-04-07T12:13:17.093Z,555
2017-04-07T12:18:17.093Z,620
2017-04-07T12:23:17.139Z,530
2017-04-07T12:28:17.315Z,485
2017-04-07T12:33:17.127Z,495
2017-04-07T12:38:17.095Z,525
2017-04-07T12:43:17.068Z,510
2017-04-07T12:48:17.031Z,525
2017-04-07T12:53:16.949Z,530
2017-04-07T12:58:16.736Z,535
2017-04-07T13:03:16.693Z,500
2017-04-07T13:08:16.951Z,465
2017-04-07T13:13:16.905Z,460
2017-04-07T13:18:16.888Z,445
2017-04-07T13:23:16.736Z,425
2017-04-07T13:28:16.806Z,415
2017-04-07T13:33:16.474Z,430
2017-04-07T13:38:16.415Z,430
2017-04-07T13:43:16.772Z,420
2017-04-07T13:48:16.657Z,400
2017-04-07T13:53:16.413Z,390
2017-04-07T13:58:16.556Z,390
2017-04-07T14:03:16.246Z,345
2017-04-07T14:08:16.498Z,340
2017-04-07T14:13:16.365Z,360
2017-04-07T14:18:16.451Z,355
2017-04-07T14:23:16.374Z,345
2017-04-07T14:28:16.338Z,330
2017-04-07T14:33:15.985Z,325
2017-04-07T14:38:15.938Z,315
2017-04-07T14:43:16.280Z,300
2017-04-07T14:48:16.170Z,300
2017-04-07T14:53:16.150Z,280
2017-04-07T14:58:16.086Z,275
2017-04-07T15:03:16.039Z,275
2017-04-07T15:08:15.992Z,265
2017-04-07T15:13:15.960Z,255
2017-04-07T15:18:15.925Z,245
2017-04-07T15:23:15.919Z,230
2017-04-07T15:28:15.920Z,220
2017-04-07T15:33:15.897Z,215
2017-04-07T15:38:15.934Z,210
2017-04-07T15:43:15.942Z,205
2017-04-07T15:48:15.948Z,195
2017-04-07T15:53:15.588Z,195
2017-04-07T15:58:15.951Z,180
2017-04-07T16:03:15.918Z,170
2017-04-07T16:08:15.604Z,170
2017-04-07T16:13:15.883Z,165
2017-04-07T16:18:15.940Z,160
2017-04-07T16:23:15.869Z,145
2017-04-07T16:28:15.960Z,130
2017-04-07T16:33:15.879Z,120
2017-04-07T16:38:15.606Z,110
2017-04-07T16:43:15.824Z,105
2017-04-07T16:48:15.490Z,95
2017-04-07T16:53:15.791Z,90
2017-04-07T16:58:15.795Z,90
2017-04-07T17:03:15.145Z,85
2017-04-07T17:08:15.700Z,80
2017-04-07T17:13:15.685Z,75
2017-04-07T17:18:15.719Z,70
2017-04-07T17:23:15.628Z,65
2017-04-07T17:28:15.580Z,65
2017-04-07T17:33:15.549Z,60
2017-04-07T17:38:15.440Z,55
2017-04-07T17:43:14.803Z,45
2017-04-07T17:48:15.309Z,35
2017-04-07T17:53:15.242Z,30
2017-04-07T17:58:15.135Z,25
2017-04-07T18:03:15.095Z,20
2017-04-07T18:08:15.096Z,15
2017-04-07T18:13:15.097Z,10
2017-04-07T18:18:15.083Z,5
2017-04-07T18:23:14.983Z,5
2017-04-07T18:28:15.178Z,0
2017-04-07T18:33:14.602Z,0
2017-04-07T18:38:14.658Z,0
2017-04-07T18:43:14.876Z,0
2017-04-07T18:48:14.606Z,0
2017-04-07T18:53:14.789Z,0
2017-04-07T18:58:14.432Z,0
2017-04-07T19:03:14.743Z,0
2017-04-07T19:08:14.342Z,0
2017-04-07T19:13:14.646Z,0
2017-04-07T19:18:14.290Z,0
2017-04-07T19:23:14.554Z,0
2017-04-07T19:28:14.585Z,0
2017-04-07T19:33:14.568Z,0
2017-04-07T19:38:14.173Z,0
2017-04-07T19:43:14.438Z,0
2017-04-07T19:48:14.372Z,0
2017-04-07T19:53:14.355Z,0
2017-04-07T19:58:14.286Z,0
2017-04-07T20:03:14.271Z,0
2017-04-07T20:08:14.286Z,0
2017-04-07T20:13:14.233Z,0
2017-04-07T20:18:14.331Z,0
2017-04-07T20:23:13.823Z,0
2017-04-07T20:28:14.072Z,0
2017-04-07T20:33:13.787Z,0
2017-04-07T20:38:13.984Z,0
2017-04-07T20:43:13.695Z,0
2017-04-07T20:48:13.981Z,0
2017-04-07T20:53:13.927Z,0
2017-04-07T20:58:13.922Z,0
2017-04-07T21:03:13.526Z,0
2017-04-07T21:08:13.792Z,0
2017-04-07T21:13:13.804Z,0
2017-04-07T21:18:13.769Z,0
2017-04-07T21:23:13.841Z,0
2017-04-07T21:28:13.628Z,0
2017-04-07T21:33:13.276Z,0
2017-04-07T21:38:13.294Z,0
2017-04-07T21:43:13.569Z,0
2017-04-07T21:48:13.166Z,0
